sensor_id;sensor_type;location;lat;lon;timestamp;P1;durP1;ratioP1;P2;durP2;ratioP2
41512;SDS011;27244;59.940;30.280;2023-08-20T00:01:24;2.72;;;0.95;;
41512;SDS011;27244;59.940;30.280;2023-08-20T00:03:53;2.22;;;0.80;;
41512;SDS011;27244;59.940;30.280;2023-08-20T00:06:21;1.95;;;0.80;;
41512;SDS011;27244;59.940;30.280;2023-08-20T00:08:49;1.30;;;0.95;;
41512;SDS011;27244;59.940;30.280;2023-08-20T00:11:18;1.80;;;1.00;;
41512;SDS011;27244;59.940;30.280;2023-08-20T00:13:45;2.22;;;1.15;;
41512;SDS011;27244;59.940;30.280;2023-08-20T00:16:13;5.07;;;1.25;;
41512;SDS011;27244;59.940;30.280;2023-08-20T00:18:40;1.50;;;0.90;;
41512;SDS011;27244;59.940;30.280;2023-08-20T00:21:08;2.38;;;1.17;;
41512;SDS011;27244;59.940;30.280;2023-08-20T00:23:35;3.30;;;0.88;;
41512;SDS011;27244;59.940;30.280;2023-08-20T00:26:03;2.75;;;0.98;;
41512;SDS011;27244;59.940;30.280;2023-08-20T00:28:32;3.83;;;1.10;;
41512;SDS011;27244;59.940;30.280;2023-08-20T00:30:59;2.28;;;1.00;;
41512;SDS011;27244;59.940;30.280;2023-08-20T00:33:27;1.67;;;0.90;;
41512;SDS011;27244;59.940;30.280;2023-08-20T00:35:54;2.72;;;1.02;;
41512;SDS011;27244;59.940;30.280;2023-08-20T00:38:22;3.08;;;1.00;;
41512;SDS011;27244;59.940;30.280;2023-08-20T00:40:49;2.42;;;1.20;;
41512;SDS011;27244;59.940;30.280;2023-08-20T00:43:16;2.78;;;1.02;;
41512;SDS011;27244;59.940;30.280;2023-08-20T00:45:44;1.92;;;1.00;;
41512;SDS011;27244;59.940;30.280;2023-08-20T00:48:11;2.00;;;1.10;;
41512;SDS011;27244;59.940;30.280;2023-08-20T00:50:39;1.58;;;0.90;;
41512;SDS011;27244;59.940;30.280;2023-08-20T00:53:07;1.30;;;0.80;;
41512;SDS011;27244;59.940;30.280;2023-08-20T00:55:36;1.60;;;1.00;;
41512;SDS011;27244;59.940;30.280;2023-08-20T00:58:03;2.40;;;1.15;;
41512;SDS011;27244;59.940;30.280;2023-08-20T01:00:32;1.77;;;1.08;;
41512;SDS011;27244;59.940;30.280;2023-08-20T01:03:00;1.95;;;1.15;;
41512;SDS011;27244;59.940;30.280;2023-08-20T01:05:29;1.63;;;0.93;;
41512;SDS011;27244;59.940;30.280;2023-08-20T01:08:04;2.60;;;1.10;;
41512;SDS011;27244;59.940;30.280;2023-08-20T01:10:43;3.08;;;1.00;;
41512;SDS011;27244;59.940;30.280;2023-08-20T01:13:17;1.00;;;0.85;;
41512;SDS011;27244;59.940;30.280;2023-08-20T01:15:45;1.90;;;0.80;;
41512;SDS011;27244;59.940;30.280;2023-08-20T01:18:13;1.63;;;1.00;;
41512;SDS011;27244;59.940;30.280;2023-08-20T01:20:41;3.15;;;0.70;;
41512;SDS011;27244;59.940;30.280;2023-08-20T01:26:15;1.25;;;0.88;;
41512;SDS011;27244;59.940;30.280;2023-08-20T01:28:54;3.10;;;1.00;;
41512;SDS011;27244;59.940;30.280;2023-08-20T01:31:22;2.95;;;1.10;;
41512;SDS011;27244;59.940;30.280;2023-08-20T01:33:51;1.67;;;0.90;;
41512;SDS011;27244;59.940;30.280;2023-08-20T01:36:20;2.95;;;0.90;;
41512;SDS011;27244;59.940;30.280;2023-08-20T01:38:48;2.95;;;0.95;;
41512;SDS011;27244;59.940;30.280;2023-08-20T01:41:16;2.05;;;0.93;;
41512;SDS011;27244;59.940;30.280;2023-08-20T01:43:43;1.65;;;0.75;;
41512;SDS011;27244;59.940;30.280;2023-08-20T01:46:12;3.10;;;1.25;;
41512;SDS011;27244;59.940;30.280;2023-08-20T01:48:39;3.13;;;0.80;;
41512;SDS011;27244;59.940;30.280;2023-08-20T01:51:06;2.97;;;0.80;;
41512;SDS011;27244;59.940;30.280;2023-08-20T01:53:33;2.58;;;1.00;;
41512;SDS011;27244;59.940;30.280;2023-08-20T01:56:00;3.38;;;1.20;;
41512;SDS011;27244;59.940;30.280;2023-08-20T01:58:28;3.83;;;0.82;;
41512;SDS011;27244;59.940;30.280;2023-08-20T02:00:57;4.88;;;1.30;;
41512;SDS011;27244;59.940;30.280;2023-08-20T02:03:25;5.10;;;1.00;;
41512;SDS011;27244;59.940;30.280;2023-08-20T02:05:52;5.13;;;0.85;;
41512;SDS011;27244;59.940;30.280;2023-08-20T02:08:19;4.25;;;0.90;;
41512;SDS011;27244;59.940;30.280;2023-08-20T02:10:47;4.47;;;0.98;;
41512;SDS011;27244;59.940;30.280;2023-08-20T02:13:14;4.55;;;1.00;;
41512;SDS011;27244;59.940;30.280;2023-08-20T02:15:41;6.70;;;2.03;;
41512;SDS011;27244;59.940;30.280;2023-08-20T02:18:08;4.47;;;1.85;;
41512;SDS011;27244;59.940;30.280;2023-08-20T02:20:36;7.40;;;1.70;;
41512;SDS011;27244;59.940;30.280;2023-08-20T02:23:03;2.45;;;1.10;;
41512;SDS011;27244;59.940;30.280;2023-08-20T02:25:31;2.92;;;0.80;;
41512;SDS011;27244;59.940;30.280;2023-08-20T02:27:58;2.13;;;0.80;;
41512;SDS011;27244;59.940;30.280;2023-08-20T02:30:25;2.78;;;0.90;;
41512;SDS011;27244;59.940;30.280;2023-08-20T02:32:52;2.92;;;0.95;;
41512;SDS011;27244;59.940;30.280;2023-08-20T02:35:19;2.78;;;0.90;;
41512;SDS011;27244;59.940;30.280;2023-08-20T02:37:51;2.08;;;1.05;;
41512;SDS011;27244;59.940;30.280;2023-08-20T02:40:18;2.58;;;0.82;;
41512;SDS011;27244;59.940;30.280;2023-08-20T02:42:45;2.05;;;1.00;;
41512;SDS011;27244;59.940;30.280;2023-08-20T02:45:12;3.78;;;1.20;;
41512;SDS011;27244;59.940;30.280;2023-08-20T02:47:39;3.90;;;0.80;;
41512;SDS011;27244;59.940;30.280;2023-08-20T02:50:07;6.38;;;1.00;;
41512;SDS011;27244;59.940;30.280;2023-08-20T02:52:34;4.05;;;1.00;;
41512;SDS011;27244;59.940;30.280;2023-08-20T02:55:03;3.95;;;0.90;;
41512;SDS011;27244;59.940;30.280;2023-08-20T02:57:31;1.35;;;0.63;;
41512;SDS011;27244;59.940;30.280;2023-08-20T02:59:58;0.88;;;0.68;;
41512;SDS011;27244;59.940;30.280;2023-08-20T03:02:25;1.80;;;0.60;;
41512;SDS011;27244;59.940;30.280;2023-08-20T03:04:52;2.10;;;0.90;;
41512;SDS011;27244;59.940;30.280;2023-08-20T03:07:21;1.60;;;0.77;;
41512;SDS011;27244;59.940;30.280;2023-08-20T03:09:48;2.08;;;0.85;;
41512;SDS011;27244;59.940;30.280;2023-08-20T03:12:16;3.33;;;0.80;;
41512;SDS011;27244;59.940;30.280;2023-08-20T03:14:43;3.38;;;1.00;;
41512;SDS011;27244;59.940;30.280;2023-08-20T03:17:10;2.15;;;0.70;;
41512;SDS011;27244;59.940;30.280;2023-08-20T03:19:44;0.98;;;0.77;;
41512;SDS011;27244;59.940;30.280;2023-08-20T03:22:20;3.80;;;1.00;;
41512;SDS011;27244;59.940;30.280;2023-08-20T03:24:47;2.30;;;0.98;;
41512;SDS011;27244;59.940;30.280;2023-08-20T03:27:16;2.63;;;0.90;;
41512;SDS011;27244;59.940;30.280;2023-08-20T03:29:44;3.25;;;0.77;;
41512;SDS011;27244;59.940;30.280;2023-08-20T03:32:12;2.85;;;1.30;;
41512;SDS011;27244;59.940;30.280;2023-08-20T03:34:39;2.20;;;0.90;;
41512;SDS011;27244;59.940;30.280;2023-08-20T03:37:06;3.90;;;0.82;;
41512;SDS011;27244;59.940;30.280;2023-08-20T03:39:34;2.00;;;0.90;;
41512;SDS011;27244;59.940;30.280;2023-08-20T03:42:01;4.53;;;1.00;;
41512;SDS011;27244;59.940;30.280;2023-08-20T03:44:30;1.15;;;0.55;;
41512;SDS011;27244;59.940;30.280;2023-08-20T03:46:57;4.00;;;1.23;;
41512;SDS011;27244;59.940;30.280;2023-08-20T03:49:25;0.93;;;0.60;;
41512;SDS011;27244;59.940;30.280;2023-08-20T03:51:52;4.07;;;1.00;;
41512;SDS011;27244;59.940;30.280;2023-08-20T03:54:19;1.95;;;0.98;;
41512;SDS011;27244;59.940;30.280;2023-08-20T03:56:46;1.63;;;0.75;;
41512;SDS011;27244;59.940;30.280;2023-08-20T03:59:14;1.17;;;0.88;;
41512;SDS011;27244;59.940;30.280;2023-08-20T04:01:42;1.77;;;1.00;;
41512;SDS011;27244;59.940;30.280;2023-08-20T04:04:09;1.20;;;0.70;;
41512;SDS011;27244;59.940;30.280;2023-08-20T04:06:36;1.58;;;0.90;;
41512;SDS011;27244;59.940;30.280;2023-08-20T04:09:03;1.35;;;0.77;;
41512;SDS011;27244;59.940;30.280;2023-08-20T04:11:31;1.30;;;0.75;;
41512;SDS011;27244;59.940;30.280;2023-08-20T04:13:58;2.63;;;1.10;;
41512;SDS011;27244;59.940;30.280;2023-08-20T04:16:25;1.77;;;0.90;;
41512;SDS011;27244;59.940;30.280;2023-08-20T04:18:54;1.40;;;0.70;;
41512;SDS011;27244;59.940;30.280;2023-08-20T04:21:21;2.45;;;1.15;;
41512;SDS011;27244;59.940;30.280;2023-08-20T04:23:48;2.70;;;0.85;;
41512;SDS011;27244;59.940;30.280;2023-08-20T04:26:16;2.30;;;0.95;;
41512;SDS011;27244;59.940;30.280;2023-08-20T04:28:43;1.00;;;0.65;;
41512;SDS011;27244;59.940;30.280;2023-08-20T04:31:10;1.33;;;0.75;;
41512;SDS011;27244;59.940;30.280;2023-08-20T04:34:05;2.72;;;0.98;;
41512;SDS011;27244;59.940;30.280;2023-08-20T04:36:48;1.35;;;0.70;;
41512;SDS011;27244;59.940;30.280;2023-08-20T04:39:15;1.60;;;1.00;;
41512;SDS011;27244;59.940;30.280;2023-08-20T04:41:46;2.78;;;0.90;;
41512;SDS011;27244;59.940;30.280;2023-08-20T04:44:16;1.80;;;0.88;;
41512;SDS011;27244;59.940;30.280;2023-08-20T04:46:44;2.78;;;0.93;;
41512;SDS011;27244;59.940;30.280;2023-08-20T04:49:13;3.05;;;1.05;;
41512;SDS011;27244;59.940;30.280;2023-08-20T04:51:40;1.65;;;1.05;;
41512;SDS011;27244;59.940;30.280;2023-08-20T04:54:07;1.02;;;0.80;;
41512;SDS011;27244;59.940;30.280;2023-08-20T04:56:34;0.80;;;0.68;;
41512;SDS011;27244;59.940;30.280;2023-08-20T04:59:01;2.25;;;0.70;;
41512;SDS011;27244;59.940;30.280;2023-08-20T05:01:47;1.05;;;0.80;;
41512;SDS011;27244;59.940;30.280;2023-08-20T05:04:18;1.20;;;0.80;;
41512;SDS011;27244;59.940;30.280;2023-08-20T05:06:45;1.92;;;0.77;;
41512;SDS011;27244;59.940;30.280;2023-08-20T05:09:12;1.42;;;0.90;;
41512;SDS011;27244;59.940;30.280;2023-08-20T05:11:39;1.20;;;0.80;;
41512;SDS011;27244;59.940;30.280;2023-08-20T05:14:07;2.10;;;1.00;;
41512;SDS011;27244;59.940;30.280;2023-08-20T05:16:34;2.17;;;1.00;;
41512;SDS011;27244;59.940;30.280;2023-08-20T05:19:01;1.27;;;0.90;;
41512;SDS011;27244;59.940;30.280;2023-08-20T05:21:30;0.82;;;0.52;;
41512;SDS011;27244;59.940;30.280;2023-08-20T05:23:58;1.13;;;0.77;;
41512;SDS011;27244;59.940;30.280;2023-08-20T05:26:25;1.58;;;0.82;;
41512;SDS011;27244;59.940;30.280;2023-08-20T05:28:52;2.25;;;1.05;;
41512;SDS011;27244;59.940;30.280;2023-08-20T05:31:19;4.10;;;1.02;;
41512;SDS011;27244;59.940;30.280;2023-08-20T05:33:46;1.77;;;1.00;;
41512;SDS011;27244;59.940;30.280;2023-08-20T05:36:14;1.10;;;0.73;;
41512;SDS011;27244;59.940;30.280;2023-08-20T05:38:45;1.40;;;1.27;;
41512;SDS011;27244;59.940;30.280;2023-08-20T05:41:12;1.65;;;1.00;;
41512;SDS011;27244;59.940;30.280;2023-08-20T05:43:39;1.60;;;0.70;;
41512;SDS011;27244;59.940;30.280;2023-08-20T05:46:06;2.30;;;0.70;;
41512;SDS011;27244;59.940;30.280;2023-08-20T05:48:34;1.20;;;0.80;;
41512;SDS011;27244;59.940;30.280;2023-08-20T05:51:01;1.63;;;0.80;;
41512;SDS011;27244;59.940;30.280;2023-08-20T05:53:29;1.55;;;1.00;;
41512;SDS011;27244;59.940;30.280;2023-08-20T05:55:57;0.90;;;0.70;;
41512;SDS011;27244;59.940;30.280;2023-08-20T05:58:25;1.90;;;0.82;;
41512;SDS011;27244;59.940;30.280;2023-08-20T06:00:53;1.33;;;0.80;;
41512;SDS011;27244;59.940;30.280;2023-08-20T06:03:20;2.63;;;0.82;;
41512;SDS011;27244;59.940;30.280;2023-08-20T06:05:47;1.48;;;0.93;;
41512;SDS011;27244;59.940;30.280;2023-08-20T06:08:14;1.33;;;0.80;;
41512;SDS011;27244;59.940;30.280;2023-08-20T06:10:41;1.10;;;0.90;;
41512;SDS011;27244;59.940;30.280;2023-08-20T06:13:10;1.90;;;0.77;;
41512;SDS011;27244;59.940;30.280;2023-08-20T06:15:37;2.75;;;0.80;;
41512;SDS011;27244;59.940;30.280;2023-08-20T06:18:04;1.13;;;0.80;;
41512;SDS011;27244;59.940;30.280;2023-08-20T06:20:32;1.20;;;0.73;;
41512;SDS011;27244;59.940;30.280;2023-08-20T06:22:59;1.23;;;0.70;;
41512;SDS011;27244;59.940;30.280;2023-08-20T06:25:26;0.90;;;0.70;;
41512;SDS011;27244;59.940;30.280;2023-08-20T06:27:53;1.58;;;0.95;;
41512;SDS011;27244;59.940;30.280;2023-08-20T06:30:22;1.05;;;0.80;;
41512;SDS011;27244;59.940;30.280;2023-08-20T06:32:49;2.17;;;0.70;;
41512;SDS011;27244;59.940;30.280;2023-08-20T06:35:16;1.45;;;0.88;;
41512;SDS011;27244;59.940;30.280;2023-08-20T06:37:43;1.50;;;0.68;;
41512;SDS011;27244;59.940;30.280;2023-08-20T06:40:10;1.38;;;0.90;;
41512;SDS011;27244;59.940;30.280;2023-08-20T06:42:39;1.52;;;0.90;;
41512;SDS011;27244;59.940;30.280;2023-08-20T06:45:06;1.25;;;1.00;;
41512;SDS011;27244;59.940;30.280;2023-08-20T06:47:36;1.75;;;0.90;;
41512;SDS011;27244;59.940;30.280;2023-08-20T06:50:03;1.58;;;0.85;;
41512;SDS011;27244;59.940;30.280;2023-08-20T06:52:31;1.27;;;0.80;;
41512;SDS011;27244;59.940;30.280;2023-08-20T06:54:58;1.23;;;0.88;;
41512;SDS011;27244;59.940;30.280;2023-08-20T06:57:26;1.55;;;0.70;;
41512;SDS011;27244;59.940;30.280;2023-08-20T06:59:53;1.65;;;0.88;;
41512;SDS011;27244;59.940;30.280;2023-08-20T07:02:20;1.67;;;0.93;;
41512;SDS011;27244;59.940;30.280;2023-08-20T07:04:48;1.27;;;0.90;;
41512;SDS011;27244;59.940;30.280;2023-08-20T07:07:15;1.77;;;0.70;;
41512;SDS011;27244;59.940;30.280;2023-08-20T07:09:42;1.13;;;0.70;;
41512;SDS011;27244;59.940;30.280;2023-08-20T07:12:10;3.22;;;0.82;;
41512;SDS011;27244;59.940;30.280;2023-08-20T07:14:45;1.58;;;0.90;;
41512;SDS011;27244;59.940;30.280;2023-08-20T07:17:12;1.02;;;0.90;;
41512;SDS011;27244;59.940;30.280;2023-08-20T07:19:40;1.90;;;0.80;;
41512;SDS011;27244;59.940;30.280;2023-08-20T07:22:08;2.95;;;0.98;;
41512;SDS011;27244;59.940;30.280;2023-08-20T07:24:35;2.63;;;0.80;;
41512;SDS011;27244;59.940;30.280;2023-08-20T07:27:02;1.42;;;0.70;;
41512;SDS011;27244;59.940;30.280;2023-08-20T07:29:36;1.35;;;0.80;;
41512;SDS011;27244;59.940;30.280;2023-08-20T07:32:03;1.63;;;0.90;;
41512;SDS011;27244;59.940;30.280;2023-08-20T07:34:30;1.20;;;0.70;;
41512;SDS011;27244;59.940;30.280;2023-08-20T07:36:59;1.10;;;0.70;;
41512;SDS011;27244;59.940;30.280;2023-08-20T07:39:28;1.17;;;1.02;;
41512;SDS011;27244;59.940;30.280;2023-08-20T07:41:55;3.78;;;0.98;;
41512;SDS011;27244;59.940;30.280;2023-08-20T07:44:22;1.23;;;0.68;;
41512;SDS011;27244;59.940;30.280;2023-08-20T07:46:49;1.70;;;0.98;;
41512;SDS011;27244;59.940;30.280;2023-08-20T07:49:16;1.60;;;1.05;;
41512;SDS011;27244;59.940;30.280;2023-08-20T07:51:43;1.67;;;0.90;;
41512;SDS011;27244;59.940;30.280;2023-08-20T07:54:10;1.63;;;0.80;;
41512;SDS011;27244;59.940;30.280;2023-08-20T07:56:38;2.67;;;0.80;;
41512;SDS011;27244;59.940;30.280;2023-08-20T07:59:05;1.17;;;0.80;;
41512;SDS011;27244;59.940;30.280;2023-08-20T08:01:33;1.20;;;0.80;;
41512;SDS011;27244;59.940;30.280;2023-08-20T08:04:00;1.00;;;0.80;;
41512;SDS011;27244;59.940;30.280;2023-08-20T08:06:27;1.92;;;0.98;;
41512;SDS011;27244;59.940;30.280;2023-08-20T08:08:54;1.52;;;1.10;;
41512;SDS011;27244;59.940;30.280;2023-08-20T08:11:21;1.83;;;1.00;;
41512;SDS011;27244;59.940;30.280;2023-08-20T08:13:51;1.23;;;0.70;;
41512;SDS011;27244;59.940;30.280;2023-08-20T08:16:18;1.65;;;0.93;;
41512;SDS011;27244;59.940;30.280;2023-08-20T08:18:45;1.05;;;0.77;;
41512;SDS011;27244;59.940;30.280;2023-08-20T08:21:12;1.45;;;0.73;;
41512;SDS011;27244;59.940;30.280;2023-08-20T08:23:39;1.15;;;0.75;;
41512;SDS011;27244;59.940;30.280;2023-08-20T08:26:06;2.10;;;0.98;;
41512;SDS011;27244;59.940;30.280;2023-08-20T08:28:33;2.10;;;1.10;;
41512;SDS011;27244;59.940;30.280;2023-08-20T08:31:01;1.55;;;0.80;;
41512;SDS011;27244;59.940;30.280;2023-08-20T08:33:28;1.45;;;0.98;;
41512;SDS011;27244;59.940;30.280;2023-08-20T08:35:55;1.65;;;0.90;;
41512;SDS011;27244;59.940;30.280;2023-08-20T08:38:22;4.03;;;1.00;;
41512;SDS011;27244;59.940;30.280;2023-08-20T08:40:50;4.05;;;1.15;;
41512;SDS011;27244;59.940;30.280;2023-08-20T08:43:18;3.38;;;1.27;;
41512;SDS011;27244;59.940;30.280;2023-08-20T08:45:45;2.33;;;0.95;;
41512;SDS011;27244;59.940;30.280;2023-08-20T08:48:15;3.67;;;1.80;;
41512;SDS011;27244;59.940;30.280;2023-08-20T08:50:44;8.15;;;1.50;;
41512;SDS011;27244;59.940;30.280;2023-08-20T08:53:12;5.20;;;1.65;;
41512;SDS011;27244;59.940;30.280;2023-08-20T08:55:40;10.95;;;1.50;;
41512;SDS011;27244;59.940;30.280;2023-08-20T08:58:07;9.43;;;1.10;;
41512;SDS011;27244;59.940;30.280;2023-08-20T09:00:34;5.43;;;1.13;;
41512;SDS011;27244;59.940;30.280;2023-08-20T09:03:01;3.72;;;1.10;;
41512;SDS011;27244;59.940;30.280;2023-08-20T09:05:29;6.82;;;1.35;;
41512;SDS011;27244;59.940;30.280;2023-08-20T09:07:57;2.50;;;0.90;;
41512;SDS011;27244;59.940;30.280;2023-08-20T09:10:25;3.83;;;0.95;;
41512;SDS011;27244;59.940;30.280;2023-08-20T09:12:54;3.15;;;1.05;;
41512;SDS011;27244;59.940;30.280;2023-08-20T09:15:22;4.57;;;1.35;;
41512;SDS011;27244;59.940;30.280;2023-08-20T09:18:00;8.20;;;1.30;;
41512;SDS011;27244;59.940;30.280;2023-08-20T09:20:39;2.95;;;0.88;;
41512;SDS011;27244;59.940;30.280;2023-08-20T09:23:10;4.38;;;1.50;;
41512;SDS011;27244;59.940;30.280;2023-08-20T09:25:38;2.85;;;1.02;;
41512;SDS011;27244;59.940;30.280;2023-08-20T09:28:08;3.40;;;1.15;;
41512;SDS011;27244;59.940;30.280;2023-08-20T09:30:36;3.03;;;1.17;;
41512;SDS011;27244;59.940;30.280;2023-08-20T09:33:04;2.53;;;1.05;;
41512;SDS011;27244;59.940;30.280;2023-08-20T09:35:34;2.55;;;1.05;;
41512;SDS011;27244;59.940;30.280;2023-08-20T09:38:03;2.47;;;0.80;;
41512;SDS011;27244;59.940;30.280;2023-08-20T09:40:30;3.13;;;1.10;;
41512;SDS011;27244;59.940;30.280;2023-08-20T09:42:58;2.42;;;1.00;;
41512;SDS011;27244;59.940;30.280;2023-08-20T09:45:28;7.32;;;1.52;;
41512;SDS011;27244;59.940;30.280;2023-08-20T09:47:55;2.38;;;1.00;;
41512;SDS011;27244;59.940;30.280;2023-08-20T09:50:25;1.40;;;0.88;;
41512;SDS011;27244;59.940;30.280;2023-08-20T09:52:55;2.75;;;1.10;;
41512;SDS011;27244;59.940;30.280;2023-08-20T09:55:28;1.42;;;1.00;;
41512;SDS011;27244;59.940;30.280;2023-08-20T09:57:59;2.90;;;1.00;;
41512;SDS011;27244;59.940;30.280;2023-08-20T10:00:28;1.45;;;0.90;;
41512;SDS011;27244;59.940;30.280;2023-08-20T10:02:56;1.90;;;0.90;;
41512;SDS011;27244;59.940;30.280;2023-08-20T10:05:25;1.40;;;0.90;;
41512;SDS011;27244;59.940;30.280;2023-08-20T10:07:52;2.17;;;1.00;;
41512;SDS011;27244;59.940;30.280;2023-08-20T10:10:21;6.68;;;1.10;;
41512;SDS011;27244;59.940;30.280;2023-08-20T10:12:50;2.95;;;0.80;;
41512;SDS011;27244;59.940;30.280;2023-08-20T10:15:18;1.73;;;0.90;;
41512;SDS011;27244;59.940;30.280;2023-08-20T10:17:45;6.00;;;1.40;;
41512;SDS011;27244;59.940;30.280;2023-08-20T10:20:13;3.10;;;1.45;;
41512;SDS011;27244;59.940;30.280;2023-08-20T10:22:42;5.28;;;1.00;;
41512;SDS011;27244;59.940;30.280;2023-08-20T10:25:10;3.22;;;1.10;;
41512;SDS011;27244;59.940;30.280;2023-08-20T10:27:39;2.78;;;0.85;;
41512;SDS011;27244;59.940;30.280;2023-08-20T10:30:09;5.63;;;1.20;;
41512;SDS011;27244;59.940;30.280;2023-08-20T10:32:46;2.67;;;1.35;;
41512;SDS011;27244;59.940;30.280;2023-08-20T10:35:15;4.70;;;1.10;;
41512;SDS011;27244;59.940;30.280;2023-08-20T10:40:47;1.80;;;1.00;;
41512;SDS011;27244;59.940;30.280;2023-08-20T10:43:31;5.50;;;1.00;;
41512;SDS011;27244;59.940;30.280;2023-08-20T10:46:03;3.80;;;1.10;;
41512;SDS011;27244;59.940;30.280;2023-08-20T10:48:31;1.75;;;0.90;;
41512;SDS011;27244;59.940;30.280;2023-08-20T10:51:06;4.70;;;1.17;;
41512;SDS011;27244;59.940;30.280;2023-08-20T10:53:36;2.67;;;0.90;;
41512;SDS011;27244;59.940;30.280;2023-08-20T10:56:07;1.60;;;1.00;;
41512;SDS011;27244;59.940;30.280;2023-08-20T10:58:38;2.33;;;0.77;;
41512;SDS011;27244;59.940;30.280;2023-08-20T11:01:21;3.42;;;1.13;;
41512;SDS011;27244;59.940;30.280;2023-08-20T11:03:49;2.53;;;1.00;;
41512;SDS011;27244;59.940;30.280;2023-08-20T11:06:17;3.28;;;1.10;;
41512;SDS011;27244;59.940;30.280;2023-08-20T11:08:44;2.65;;;0.90;;
41512;SDS011;27244;59.940;30.280;2023-08-20T11:11:12;6.22;;;1.00;;
41512;SDS011;27244;59.940;30.280;2023-08-20T11:13:39;4.18;;;1.10;;
41512;SDS011;27244;59.940;30.280;2023-08-20T11:16:08;3.63;;;1.05;;
41512;SDS011;27244;59.940;30.280;2023-08-20T11:18:37;4.18;;;1.02;;
41512;SDS011;27244;59.940;30.280;2023-08-20T11:21:04;1.95;;;0.85;;
41512;SDS011;27244;59.940;30.280;2023-08-20T11:23:31;2.28;;;0.95;;
41512;SDS011;27244;59.940;30.280;2023-08-20T11:25:59;2.20;;;0.82;;
41512;SDS011;27244;59.940;30.280;2023-08-20T11:28:26;1.92;;;1.10;;
41512;SDS011;27244;59.940;30.280;2023-08-20T11:30:54;1.38;;;0.80;;
41512;SDS011;27244;59.940;30.280;2023-08-20T11:33:22;3.67;;;1.08;;
41512;SDS011;27244;59.940;30.280;2023-08-20T11:35:53;1.50;;;0.90;;
41512;SDS011;27244;59.940;30.280;2023-08-20T11:38:21;0.75;;;0.70;;
41512;SDS011;27244;59.940;30.280;2023-08-20T11:40:48;1.88;;;0.82;;
41512;SDS011;27244;59.940;30.280;2023-08-20T11:43:15;2.20;;;1.15;;
41512;SDS011;27244;59.940;30.280;2023-08-20T11:45:46;1.77;;;0.93;;
41512;SDS011;27244;59.940;30.280;2023-08-20T11:48:15;2.22;;;1.13;;
41512;SDS011;27244;59.940;30.280;2023-08-20T11:50:43;1.40;;;0.90;;
41512;SDS011;27244;59.940;30.280;2023-08-20T11:53:12;2.95;;;1.05;;
41512;SDS011;27244;59.940;30.280;2023-08-20T11:55:39;2.05;;;0.82;;
41512;SDS011;27244;59.940;30.280;2023-08-20T11:58:11;2.40;;;1.13;;
41512;SDS011;27244;59.940;30.280;2023-08-20T12:00:39;1.75;;;1.17;;
41512;SDS011;27244;59.940;30.280;2023-08-20T12:03:11;2.08;;;0.90;;
41512;SDS011;27244;59.940;30.280;2023-08-20T12:05:40;2.00;;;0.70;;
41512;SDS011;27244;59.940;30.280;2023-08-20T12:08:08;2.03;;;0.93;;
41512;SDS011;27244;59.940;30.280;2023-08-20T12:10:45;1.58;;;0.75;;
41512;SDS011;27244;59.940;30.280;2023-08-20T12:13:12;1.40;;;0.90;;
41512;SDS011;27244;59.940;30.280;2023-08-20T12:15:39;1.90;;;0.82;;
41512;SDS011;27244;59.940;30.280;2023-08-20T12:18:06;2.03;;;0.80;;
41512;SDS011;27244;59.940;30.280;2023-08-20T12:20:34;1.42;;;0.85;;
41512;SDS011;27244;59.940;30.280;2023-08-20T12:23:03;1.73;;;1.10;;
41512;SDS011;27244;59.940;30.280;2023-08-20T12:25:34;1.63;;;0.98;;
41512;SDS011;27244;59.940;30.280;2023-08-20T12:28:02;1.75;;;0.90;;
41512;SDS011;27244;59.940;30.280;2023-08-20T12:30:30;1.38;;;0.90;;
41512;SDS011;27244;59.940;30.280;2023-08-20T12:32:57;1.88;;;1.05;;
41512;SDS011;27244;59.940;30.280;2023-08-20T12:35:24;2.28;;;0.90;;
41512;SDS011;27244;59.940;30.280;2023-08-20T12:37:51;8.88;;;1.88;;
41512;SDS011;27244;59.940;30.280;2023-08-20T12:40:18;5.20;;;1.10;;
41512;SDS011;27244;59.940;30.280;2023-08-20T12:42:47;9.35;;;1.27;;
41512;SDS011;27244;59.940;30.280;2023-08-20T12:45:14;17.83;;;2.15;;
41512;SDS011;27244;59.940;30.280;2023-08-20T12:47:41;14.15;;;1.63;;
41512;SDS011;27244;59.940;30.280;2023-08-20T12:50:08;8.25;;;1.45;;
41512;SDS011;27244;59.940;30.280;2023-08-20T12:52:36;16.83;;;2.13;;
41512;SDS011;27244;59.940;30.280;2023-08-20T12:55:03;16.80;;;2.10;;
41512;SDS011;27244;59.940;30.280;2023-08-20T12:57:33;8.60;;;1.75;;
41512;SDS011;27244;59.940;30.280;2023-08-20T13:00:03;7.38;;;1.77;;
41512;SDS011;27244;59.940;30.280;2023-08-20T13:02:37;7.18;;;1.40;;
41512;SDS011;27244;59.940;30.280;2023-08-20T13:05:04;7.57;;;1.40;;
41512;SDS011;27244;59.940;30.280;2023-08-20T13:07:34;10.18;;;2.20;;
41512;SDS011;27244;59.940;30.280;2023-08-20T13:10:02;4.85;;;1.50;;
41512;SDS011;27244;59.940;30.280;2023-08-20T13:12:30;6.78;;;1.75;;
41512;SDS011;27244;59.940;30.280;2023-08-20T13:14:58;7.97;;;1.73;;
41512;SDS011;27244;59.940;30.280;2023-08-20T13:17:28;9.85;;;1.85;;
41512;SDS011;27244;59.940;30.280;2023-08-20T13:19:56;7.90;;;2.00;;
41512;SDS011;27244;59.940;30.280;2023-08-20T13:22:23;10.75;;;2.42;;
41512;SDS011;27244;59.940;30.280;2023-08-20T13:24:52;11.38;;;3.38;;
41512;SDS011;27244;59.940;30.280;2023-08-20T13:27:33;9.50;;;2.40;;
41512;SDS011;27244;59.940;30.280;2023-08-20T13:30:03;7.13;;;1.92;;
41512;SDS011;27244;59.940;30.280;2023-08-20T13:32:33;8.87;;;2.27;;
41512;SDS011;27244;59.940;30.280;2023-08-20T13:35:07;8.07;;;2.33;;
41512;SDS011;27244;59.940;30.280;2023-08-20T13:37:34;9.25;;;2.33;;
41512;SDS011;27244;59.940;30.280;2023-08-20T13:40:02;11.00;;;3.50;;
41512;SDS011;27244;59.940;30.280;2023-08-20T13:42:34;11.57;;;3.42;;
41512;SDS011;27244;59.940;30.280;2023-08-20T13:45:03;16.63;;;3.42;;
41512;SDS011;27244;59.940;30.280;2023-08-20T13:47:42;10.45;;;2.38;;
41512;SDS011;27244;59.940;30.280;2023-08-20T13:50:10;15.55;;;3.38;;
41512;SDS011;27244;59.940;30.280;2023-08-20T13:52:37;22.27;;;6.40;;
41512;SDS011;27244;59.940;30.280;2023-08-20T13:55:04;12.50;;;5.63;;
41512;SDS011;27244;59.940;30.280;2023-08-20T13:57:32;10.95;;;4.60;;
41512;SDS011;27244;59.940;30.280;2023-08-20T14:00:20;10.07;;;3.72;;
41512;SDS011;27244;59.940;30.280;2023-08-20T14:03:01;12.65;;;3.70;;
41512;SDS011;27244;59.940;30.280;2023-08-20T14:05:29;7.40;;;3.38;;
41512;SDS011;27244;59.940;30.280;2023-08-20T14:07:56;8.10;;;3.05;;
41512;SDS011;27244;59.940;30.280;2023-08-20T14:10:24;5.68;;;3.38;;
41512;SDS011;27244;59.940;30.280;2023-08-20T14:12:51;4.90;;;3.55;;
41512;SDS011;27244;59.940;30.280;2023-08-20T14:15:18;9.38;;;3.45;;
41512;SDS011;27244;59.940;30.280;2023-08-20T14:17:45;4.65;;;3.45;;
41512;SDS011;27244;59.940;30.280;2023-08-20T14:20:17;6.57;;;3.50;;
41512;SDS011;27244;59.940;30.280;2023-08-20T14:22:44;11.93;;;3.70;;
41512;SDS011;27244;59.940;30.280;2023-08-20T14:25:11;5.97;;;3.60;;
41512;SDS011;27244;59.940;30.280;2023-08-20T14:27:39;5.90;;;4.10;;
41512;SDS011;27244;59.940;30.280;2023-08-20T14:30:06;6.72;;;4.50;;
41512;SDS011;27244;59.940;30.280;2023-08-20T14:32:35;8.45;;;3.33;;
41512;SDS011;27244;59.940;30.280;2023-08-20T14:35:06;4.80;;;3.07;;
41512;SDS011;27244;59.940;30.280;2023-08-20T14:37:38;4.18;;;2.55;;
41512;SDS011;27244;59.940;30.280;2023-08-20T14:40:06;7.60;;;2.38;;
41512;SDS011;27244;59.940;30.280;2023-08-20T14:42:35;7.28;;;2.42;;
41512;SDS011;27244;59.940;30.280;2023-08-20T14:45:14;7.07;;;2.70;;
41512;SDS011;27244;59.940;30.280;2023-08-20T14:47:50;7.25;;;2.35;;